sensor_id;sensor_type;location;lat;lon;timestamp;pressure;altitude;pressure_sealevel;temperature;humidity
63088;BME280;49173;43.164;27.786;2023-08-06T00:01:50;99293.19;;;26.30;79.88
63088;BME280;49173;43.164;27.786;2023-08-06T00:04:16;99287.03;;;26.28;80.36
63088;BME280;49173;43.164;27.786;2023-08-06T00:06:42;99277.31;;;26.25;80.88
63088;BME280;49173;43.164;27.786;2023-08-06T00:09:07;99270.13;;;26.24;80.83
63088;BME280;49173;43.164;27.786;2023-08-06T00:11:33;99276.47;;;26.25;80.47
63088;BME280;49173;43.164;27.786;2023-08-06T00:13:59;99272.03;;;26.24;80.83
63088;BME280;49173;43.164;27.786;2023-08-06T00:16:25;99268.00;;;26.20;81.06
63088;BME280;49173;43.164;27.786;2023-08-06T00:18:51;99274.78;;;26.17;81.67
63088;BME280;49173;43.164;27.786;2023-08-06T00:21:16;99280.91;;;26.13;81.71
63088;BME280;49173;43.164;27.786;2023-08-06T00:23:42;99272.25;;;26.16;81.58
63088;BME280;49173;43.164;27.786;2023-08-06T00:26:08;99264.41;;;26.19;81.07
63088;BME280;49173;43.164;27.786;2023-08-06T00:28:33;99265.69;;;26.17;81.15
63088;BME280;49173;43.164;27.786;2023-08-06T00:30:59;99258.47;;;26.16;80.80
63088;BME280;49173;43.164;27.786;2023-08-06T00:33:25;99261.88;;;26.18;80.39
63088;BME280;49173;43.164;27.786;2023-08-06T00:35:51;99258.28;;;26.11;80.70
63088;BME280;49173;43.164;27.786;2023-08-06T00:38:17;99270.97;;;26.12;80.11
63088;BME280;49173;43.164;27.786;2023-08-06T00:40:42;99256.97;;;26.07;80.28
63088;BME280;49173;43.164;27.786;2023-08-06T00:43:09;99259.09;;;26.05;80.26
63088;BME280;49173;43.164;27.786;2023-08-06T00:45:37;99250.44;;;26.01;79.89
63088;BME280;49173;43.164;27.786;2023-08-06T00:48:05;99265.88;;;25.95;80.24
63088;BME280;49173;43.164;27.786;2023-08-06T00:50:31;99256.56;;;25.90;80.49
63088;BME280;49173;43.164;27.786;2023-08-06T00:52:58;99265.88;;;25.89;79.98
63088;BME280;49173;43.164;27.786;2023-08-06T00:55:24;99268.84;;;25.87;80.55
63088;BME280;49173;43.164;27.786;2023-08-06T00:57:50;99255.09;;;25.87;80.26
63088;BME280;49173;43.164;27.786;2023-08-06T01:00:19;99258.47;;;25.89;80.25
63088;BME280;49173;43.164;27.786;2023-08-06T01:02:46;99248.75;;;25.87;80.03
63088;BME280;49173;43.164;27.786;2023-08-06T01:05:11;99251.06;;;25.83;79.93
63088;BME280;49173;43.164;27.786;2023-08-06T01:10:26;99245.56;;;25.77;79.63
63088;BME280;49173;43.164;27.786;2023-08-06T01:15:41;99228.16;;;25.63;81.24
63088;BME280;49173;43.164;27.786;2023-08-06T01:18:07;99227.09;;;25.64;81.21
63088;BME280;49173;43.164;27.786;2023-08-06T01:20:34;99221.41;;;25.59;82.14
63088;BME280;49173;43.164;27.786;2023-08-06T01:23:00;99214.84;;;25.60;82.17
63088;BME280;49173;43.164;27.786;2023-08-06T01:25:30;99218.88;;;25.64;81.51
63088;BME280;49173;43.164;27.786;2023-08-06T01:28:06;99217.63;;;25.66;81.38
63088;BME280;49173;43.164;27.786;2023-08-06T01:30:33;99216.56;;;25.67;81.36
63088;BME280;49173;43.164;27.786;2023-08-06T01:33:04;99206.63;;;25.66;81.51
63088;BME280;49173;43.164;27.786;2023-08-06T01:35:32;99204.50;;;25.55;81.53
63088;BME280;49173;43.164;27.786;2023-08-06T01:37:59;99196.22;;;25.48;80.40
63088;BME280;49173;43.164;27.786;2023-08-06T01:40:25;99184.63;;;25.46;80.74
63088;BME280;49173;43.164;27.786;2023-08-06T01:42:53;99187.13;;;25.35;80.49
63088;BME280;49173;43.164;27.786;2023-08-06T01:45:19;99186.91;;;25.36;80.62
63088;BME280;49173;43.164;27.786;2023-08-06T01:47:45;99186.91;;;25.36;80.95
63088;BME280;49173;43.164;27.786;2023-08-06T01:50:10;99186.28;;;25.41;81.08
63088;BME280;49173;43.164;27.786;2023-08-06T01:52:36;99187.56;;;25.38;81.29
63088;BME280;49173;43.164;27.786;2023-08-06T01:55:04;99182.06;;;25.38;81.33
63088;BME280;49173;43.164;27.786;2023-08-06T01:57:30;99177.41;;;25.32;81.73
63088;BME280;49173;43.164;27.786;2023-08-06T01:59:56;99173.38;;;25.28;82.21
63088;BME280;49173;43.164;27.786;2023-08-06T02:02:21;99177.81;;;25.29;82.32
63088;BME280;49173;43.164;27.786;2023-08-06T02:04:47;99174.03;;;25.30;82.16
63088;BME280;49173;43.164;27.786;2023-08-06T02:07:13;99171.69;;;25.27;82.68
63088;BME280;49173;43.164;27.786;2023-08-06T02:09:38;99161.13;;;25.24;82.98
63088;BME280;49173;43.164;27.786;2023-08-06T02:12:05;99157.09;;;25.20;83.14
63088;BME280;49173;43.164;27.786;2023-08-06T02:14:31;99153.72;;;25.11;83.19
63088;BME280;49173;43.164;27.786;2023-08-06T02:16:57;99146.09;;;25.13;83.72
63088;BME280;49173;43.164;27.786;2023-08-06T02:19:23;99144.81;;;25.16;84.52
63088;BME280;49173;43.164;27.786;2023-08-06T02:21:49;99133.00;;;25.15;84.75
63088;BME280;49173;43.164;27.786;2023-08-06T02:24:14;99123.94;;;25.22;84.31
63088;BME280;49173;43.164;27.786;2023-08-06T02:26:40;99114.63;;;25.23;84.56
63088;BME280;49173;43.164;27.786;2023-08-06T02:29:06;99121.19;;;25.22;84.64
63088;BME280;49173;43.164;27.786;2023-08-06T02:31:31;99137.66;;;25.22;84.40
63088;BME280;49173;43.164;27.786;2023-08-06T02:33:57;99131.09;;;25.23;84.00
63088;BME280;49173;43.164;27.786;2023-08-06T02:36:24;99135.34;;;25.25;83.74
63088;BME280;49173;43.164;27.786;2023-08-06T02:38:50;99137.66;;;25.22;83.72
63088;BME280;49173;43.164;27.786;2023-08-06T02:41:15;99144.00;;;25.22;82.55
63088;BME280;49173;43.164;27.786;2023-08-06T02:43:41;99146.31;;;25.18;83.15
63088;BME280;49173;43.164;27.786;2023-08-06T02:46:07;99150.31;;;25.16;83.05
63088;BME280;49173;43.164;27.786;2023-08-06T02:48:32;99151.19;;;25.16;82.89
63088;BME280;49173;43.164;27.786;2023-08-06T02:50:59;99146.53;;;25.17;83.19
63088;BME280;49173;43.164;27.786;2023-08-06T02:53:26;99146.53;;;25.17;82.64
63088;BME280;49173;43.164;27.786;2023-08-06T02:55:51;99160.91;;;25.19;82.56
63088;BME280;49173;43.164;27.786;2023-08-06T02:58:17;99169.97;;;25.13;82.75
63088;BME280;49173;43.164;27.786;2023-08-06T03:01:07;99171.88;;;25.12;82.96
63088;BME280;49173;43.164;27.786;2023-08-06T03:03:34;99178.63;;;25.10;83.63
63088;BME280;49173;43.164;27.786;2023-08-06T03:06:00;99175.47;;;25.13;84.25
63088;BME280;49173;43.164;27.786;2023-08-06T03:08:26;99180.72;;;25.08;84.47
63088;BME280;49173;43.164;27.786;2023-08-06T03:10:52;99171.22;;;25.04;84.78
63088;BME280;49173;43.164;27.786;2023-08-06T03:13:18;99176.88;;;25.02;84.83
63088;BME280;49173;43.164;27.786;2023-08-06T03:15:55;99181.94;;;24.99;85.09
63088;BME280;49173;43.164;27.786;2023-08-06T03:18:21;99175.00;;;25.03;85.33
63088;BME280;49173;43.164;27.786;2023-08-06T03:20:47;99184.06;;;25.03;85.34
63088;BME280;49173;43.164;27.786;2023-08-06T03:23:13;99182.81;;;25.06;85.77
63088;BME280;49173;43.164;27.786;2023-08-06T03:25:39;99181.13;;;25.05;86.01
63088;BME280;49173;43.164;27.786;2023-08-06T03:28:04;99187.47;;;25.05;86.50
63088;BME280;49173;43.164;27.786;2023-08-06T03:30:30;99174.59;;;25.06;86.51
63088;BME280;49173;43.164;27.786;2023-08-06T03:32:56;99176.91;;;25.09;86.76
63088;BME280;49173;43.164;27.786;2023-08-06T03:35:21;99183.03;;;25.04;87.29
63088;BME280;49173;43.164;27.786;2023-08-06T03:37:47;99184.31;;;25.08;87.55
63088;BME280;49173;43.164;27.786;2023-08-06T03:40:15;99186.88;;;25.10;87.21
63088;BME280;49173;43.164;27.786;2023-08-06T03:42:41;99188.13;;;25.14;87.44
63088;BME280;49173;43.164;27.786;2023-08-06T03:45:07;99184.53;;;25.13;87.68
63088;BME280;49173;43.164;27.786;2023-08-06T03:47:33;99172.91;;;25.11;88.17
63088;BME280;49173;43.164;27.786;2023-08-06T03:49:59;99165.94;;;25.09;88.23
63088;BME280;49173;43.164;27.786;2023-08-06T03:52:24;99160.44;;;25.09;88.38
63088;BME280;49173;43.164;27.786;2023-08-06T03:54:50;99158.34;;;25.11;88.58
63088;BME280;49173;43.164;27.786;2023-08-06T03:57:16;99162.19;;;25.16;88.58
63088;BME280;49173;43.164;27.786;2023-08-06T03:59:41;99155.19;;;25.14;89.10
63088;BME280;49173;43.164;27.786;2023-08-06T04:02:07;99166.38;;;25.19;88.95
63088;BME280;49173;43.164;27.786;2023-08-06T04:04:33;99167.03;;;25.21;89.09
63088;BME280;49173;43.164;27.786;2023-08-06T04:06:58;99156.25;;;25.26;89.07
63088;BME280;49173;43.164;27.786;2023-08-06T04:09:24;99165.56;;;25.32;89.18
63088;BME280;49173;43.164;27.786;2023-08-06T04:11:50;99155.00;;;25.35;89.48
63088;BME280;49173;43.164;27.786;2023-08-06T04:14:16;99149.31;;;25.43;90.56
63088;BME280;49173;43.164;27.786;2023-08-06T04:16:41;99155.66;;;25.51;89.68
63088;BME280;49173;43.164;27.786;2023-08-06T04:19:07;99155.25;;;25.54;89.79
63088;BME280;49173;43.164;27.786;2023-08-06T04:21:33;99146.16;;;25.60;89.58
63088;BME280;49173;43.164;27.786;2023-08-06T04:23:59;99151.22;;;25.63;89.18
63088;BME280;49173;43.164;27.786;2023-08-06T04:26:25;99162.66;;;25.66;88.42
63088;BME280;49173;43.164;27.786;2023-08-06T04:28:51;99170.25;;;25.71;89.08
63088;BME280;49173;43.164;27.786;2023-08-06T04:31:16;99167.31;;;25.79;89.37
63088;BME280;49173;43.164;27.786;2023-08-06T04:33:42;99153.16;;;25.82;88.81
63088;BME280;49173;43.164;27.786;2023-08-06T04:36:08;99148.72;;;25.81;88.62
63088;BME280;49173;43.164;27.786;2023-08-06T04:38:34;99137.06;;;25.79;88.66
63088;BME280;49173;43.164;27.786;2023-08-06T04:41:02;99130.94;;;25.77;88.94
63088;BME280;49173;43.164;27.786;2023-08-06T04:43:28;99121.66;;;25.78;89.53
63088;BME280;49173;43.164;27.786;2023-08-06T04:45:55;99121.88;;;25.83;89.81
63088;BME280;49173;43.164;27.786;2023-08-06T04:48:22;99106.44;;;25.89;90.16
63088;BME280;49173;43.164;27.786;2023-08-06T04:50:50;99119.50;;;25.93;89.76
63088;BME280;49173;43.164;27.786;2023-08-06T04:53:16;99112.31;;;25.99;89.46
63088;BME280;49173;43.164;27.786;2023-08-06T04:55:42;99105.13;;;26.05;88.73
63088;BME280;49173;43.164;27.786;2023-08-06T04:58:09;99104.03;;;26.12;89.86
63088;BME280;49173;43.164;27.786;2023-08-06T05:00:36;99103.78;;;26.27;90.49
63088;BME280;49173;43.164;27.786;2023-08-06T05:03:02;99091.69;;;26.35;88.92
63088;BME280;49173;43.164;27.786;2023-08-06T05:05:29;99090.22;;;26.45;87.57
63088;BME280;49173;43.164;27.786;2023-08-06T05:07:57;99093.34;;;26.55;86.52
63088;BME280;49173;43.164;27.786;2023-08-06T05:10:26;99092.06;;;26.58;85.11
63088;BME280;49173;43.164;27.786;2023-08-06T05:12:53;99097.31;;;26.66;84.21
63088;BME280;49173;43.164;27.786;2023-08-06T05:15:19;99094.97;;;26.70;84.44
63088;BME280;49173;43.164;27.786;2023-08-06T05:17:45;99107.22;;;26.74;84.35
63088;BME280;49173;43.164;27.786;2023-08-06T05:20:11;99103.03;;;26.71;83.23
63088;BME280;49173;43.164;27.786;2023-08-06T05:22:37;99101.72;;;26.74;83.58
63088;BME280;49173;43.164;27.786;2023-08-06T05:25:03;99097.69;;;26.76;83.13
63088;BME280;49173;43.164;27.786;2023-08-06T05:27:29;99095.38;;;26.73;82.57
63088;BME280;49173;43.164;27.786;2023-08-06T05:29:55;99096.19;;;26.80;82.74
63088;BME280;49173;43.164;27.786;2023-08-06T05:32:24;99085.38;;;26.86;82.37
63088;BME280;49173;43.164;27.786;2023-08-06T05:34:50;99085.28;;;26.92;81.75
63088;BME280;49173;43.164;27.786;2023-08-06T05:37:16;99091.88;;;26.91;79.89
63088;BME280;49173;43.164;27.786;2023-08-06T05:39:41;99087.47;;;26.83;80.19
63088;BME280;49173;43.164;27.786;2023-08-06T05:42:07;99083.25;;;26.81;80.58
63088;BME280;49173;43.164;27.786;2023-08-06T05:44:33;99080.25;;;26.89;80.48
63088;BME280;49173;43.164;27.786;2023-08-06T05:46:59;99081.66;;;26.98;79.10
63088;BME280;49173;43.164;27.786;2023-08-06T05:49:25;99081.84;;;27.03;78.53
63088;BME280;49173;43.164;27.786;2023-08-06T05:51:51;99070.44;;;27.06;78.22
63088;BME280;49173;43.164;27.786;2023-08-06T05:54:19;99069.97;;;27.09;78.80
63088;BME280;49173;43.164;27.786;2023-08-06T05:56:44;99063.97;;;27.19;77.25
63088;BME280;49173;43.164;27.786;2023-08-06T05:59:10;99065.22;;;27.23;78.47
63088;BME280;49173;43.164;27.786;2023-08-06T06:01:36;99066.78;;;27.37;78.86
63088;BME280;49173;43.164;27.786;2023-08-06T06:04:02;99060.31;;;27.50;77.73
63088;BME280;49173;43.164;27.786;2023-08-06T06:06:28;99069.38;;;27.57;76.12
63088;BME280;49173;43.164;27.786;2023-08-06T06:08:53;99069.75;;;27.61;76.55
63088;BME280;49173;43.164;27.786;2023-08-06T06:11:19;99075.28;;;27.61;75.82
63088;BME280;49173;43.164;27.786;2023-08-06T06:13:50;99068.25;;;27.65;75.66
63088;BME280;49173;43.164;27.786;2023-08-06T06:16:16;99059.75;;;27.67;75.43
63088;BME280;49173;43.164;27.786;2023-08-06T06:18:42;99065.91;;;27.69;74.58
63088;BME280;49173;43.164;27.786;2023-08-06T06:21:07;99070.28;;;27.76;74.99
63088;BME280;49173;43.164;27.786;2023-08-06T06:23:33;99070.06;;;27.78;74.63
63088;BME280;49173;43.164;27.786;2023-08-06T06:25:59;99066.78;;;27.87;74.51
63088;BME280;49173;43.164;27.786;2023-08-06T06:28:25;99070.72;;;27.98;73.67
63088;BME280;49173;43.164;27.786;2023-08-06T06:30:51;99078.81;;;28.11;73.71
63088;BME280;49173;43.164;27.786;2023-08-06T06:33:17;99079.47;;;28.32;73.89
63088;BME280;49173;43.164;27.786;2023-08-06T06:35:43;99068.66;;;28.49;69.99
63088;BME280;49173;43.164;27.786;2023-08-06T06:38:09;99068.09;;;28.58;69.81
63088;BME280;49173;43.164;27.786;2023-08-06T06:40:34;99069.78;;;28.59;68.54
63088;BME280;49173;43.164;27.786;2023-08-06T06:43:00;99071.59;;;28.65;69.32
63088;BME280;49173;43.164;27.786;2023-08-06T06:45:26;99067.06;;;28.71;70.08
63088;BME280;49173;43.164;27.786;2023-08-06T06:47:52;99061.47;;;28.78;70.06
63088;BME280;49173;43.164;27.786;2023-08-06T06:50:18;99064.22;;;28.78;69.30
63088;BME280;49173;43.164;27.786;2023-08-06T06:52:44;99062.41;;;28.71;67.93
63088;BME280;49173;43.164;27.786;2023-08-06T06:55:09;99064.06;;;28.72;68.81
63088;BME280;49173;43.164;27.786;2023-08-06T06:57:35;99055.56;;;28.74;68.09
63088;BME280;49173;43.164;27.786;2023-08-06T07:00:01;99059.78;;;28.77;68.51
63088;BME280;49173;43.164;27.786;2023-08-06T07:02:26;99059.69;;;28.83;68.72
63088;BME280;49173;43.164;27.786;2023-08-06T07:04:52;99068.94;;;28.89;68.23
63088;BME280;49173;43.164;27.786;2023-08-06T07:07:18;99061.91;;;28.93;67.53
63088;BME280;49173;43.164;27.786;2023-08-06T07:09:44;99051.47;;;28.95;67.68
63088;BME280;49173;43.164;27.786;2023-08-06T07:12:10;99046.69;;;29.02;67.68
63088;BME280;49173;43.164;27.786;2023-08-06T07:14:36;99049.47;;;29.14;67.38
63088;BME280;49173;43.164;27.786;2023-08-06T07:17:01;99054.19;;;29.25;67.24
63088;BME280;49173;43.164;27.786;2023-08-06T07:19:27;99049.63;;;29.31;66.68
63088;BME280;49173;43.164;27.786;2023-08-06T07:21:53;99044.34;;;29.41;66.89
63088;BME280;49173;43.164;27.786;2023-08-06T07:24:19;99046.69;;;29.56;65.71
63088;BME280;49173;43.164;27.786;2023-08-06T07:26:44;99047.03;;;29.59;65.05
63088;BME280;49173;43.164;27.786;2023-08-06T07:29:10;99039.13;;;29.74;64.78
63088;BME280;49173;43.164;27.786;2023-08-06T07:31:36;99044.63;;;29.86;63.81
63088;BME280;49173;43.164;27.786;2023-08-06T07:34:02;99056.06;;;29.90;63.21
63088;BME280;49173;43.164;27.786;2023-08-06T07:36:28;99054.59;;;29.99;64.02
63088;BME280;49173;43.164;27.786;2023-08-06T07:38:54;99053.03;;;30.03;63.82
63088;BME280;49173;43.164;27.786;2023-08-06T07:41:25;99051.22;;;30.08;63.19
63088;BME280;49173;43.164;27.786;2023-08-06T07:43:50;99049.44;;;30.14;62.73
63088;BME280;49173;43.164;27.786;2023-08-06T07:46:16;99050.53;;;30.13;61.51
63088;BME280;49173;43.164;27.786;2023-08-06T07:48:42;99042.81;;;30.15;62.19
63088;BME280;49173;43.164;27.786;2023-08-06T07:51:08;99044.13;;;30.24;62.00
63088;BME280;49173;43.164;27.786;2023-08-06T07:53:33;99045.91;;;30.30;60.58
63088;BME280;49173;43.164;27.786;2023-08-06T07:55:59;99049.53;;;30.31;61.62
63088;BME280;49173;43.164;27.786;2023-08-06T07:58:27;99056.63;;;30.39;61.56
63088;BME280;49173;43.164;27.786;2023-08-06T08:00:55;99049.09;;;30.51;61.14
63088;BME280;49173;43.164;27.786;2023-08-06T08:03:21;99044.25;;;30.58;60.50
63088;BME280;49173;43.164;27.786;2023-08-06T08:05:46;99056.53;;;30.62;60.24
63088;BME280;49173;43.164;27.786;2023-08-06T08:08:12;99062.78;;;30.69;60.21
63088;BME280;49173;43.164;27.786;2023-08-06T08:10:38;99062.66;;;30.76;60.18
63088;BME280;49173;43.164;27.786;2023-08-06T08:13:06;99050.91;;;30.85;60.87
63088;BME280;49173;43.164;27.786;2023-08-06T08:15:32;99057.75;;;30.95;60.42
63088;BME280;49173;43.164;27.786;2023-08-06T08:18:01;99052.06;;;31.01;60.20
63088;BME280;49173;43.164;27.786;2023-08-06T08:20:27;99058.59;;;31.12;60.01
63088;BME280;49173;43.164;27.786;2023-08-06T08:23:00;99048.78;;;31.21;58.43
63088;BME280;49173;43.164;27.786;2023-08-06T08:25:28;99043.88;;;31.23;58.51
63088;BME280;49173;43.164;27.786;2023-08-06T08:27:54;99043.88;;;31.23;59.20
63088;BME280;49173;43.164;27.786;2023-08-06T08:30:21;99040.16;;;31.34;59.46
63088;BME280;49173;43.164;27.786;2023-08-06T08:32:48;99028.50;;;31.32;57.75
63088;BME280;49173;43.164;27.786;2023-08-06T08:35:14;99024.22;;;31.25;57.93
63088;BME280;49173;43.164;27.786;2023-08-06T08:37:42;99030.84;;;31.24;57.56
63088;BME280;49173;43.164;27.786;2023-08-06T08:40:09;99012.38;;;31.29;58.83
63088;BME280;49173;43.164;27.786;2023-08-06T08:42:36;99015.81;;;31.36;57.03
63088;BME280;49173;43.164;27.786;2023-08-06T08:45:06;99014.09;;;31.18;57.76
63088;BME280;49173;43.164;27.786;2023-08-06T08:47:35;99023.41;;;31.12;58.19
63088;BME280;49173;43.164;27.786;2023-08-06T08:50:02;99014.84;;;31.14;58.10
63088;BME280;49173;43.164;27.786;2023-08-06T08:52:31;99019.97;;;31.22;58.45
63088;BME280;49173;43.164;27.786;2023-08-06T08:54:58;99018.59;;;31.36;58.46
63088;BME280;49173;43.164;27.786;2023-08-06T08:57:27;99021.38;;;31.36;58.02
63088;BME280;49173;43.164;27.786;2023-08-06T08:59:53;99018.75;;;31.47;58.29
63088;BME280;49173;43.164;27.786;2023-08-06T09:02:21;99012.19;;;31.53;58.04
63088;BME280;49173;43.164;27.786;2023-08-06T09:04:48;99014.53;;;31.61;57.74
63088;BME280;49173;43.164;27.786;2023-08-06T09:07:18;99011.06;;;31.70;57.08
63088;BME280;49173;43.164;27.786;2023-08-06T09:09:47;99016.53;;;31.82;57.56
63088;BME280;49173;43.164;27.786;2023-08-06T09:12:16;99004.41;;;31.88;56.85
63088;BME280;49173;43.164;27.786;2023-08-06T09:14:42;99001.19;;;31.96;56.84
63088;BME280;49173;43.164;27.786;2023-08-06T09:17:08;98994.44;;;32.09;56.86
63088;BME280;49173;43.164;27.786;2023-08-06T09:19:36;98987.06;;;32.20;54.33
63088;BME280;49173;43.164;27.786;2023-08-06T09:22:03;98982.16;;;32.27;55.04
63088;BME280;49173;43.164;27.786;2023-08-06T09:24:30;98974.41;;;32.29;54.33
63088;BME280;49173;43.164;27.786;2023-08-06T09:26:56;98965.09;;;32.35;55.37
63088;BME280;49173;43.164;27.786;2023-08-06T09:29:23;98971.31;;;32.47;55.42
63088;BME280;49173;43.164;27.786;2023-08-06T09:31:50;98964.97;;;32.52;54.47
63088;BME280;49173;43.164;27.786;2023-08-06T09:34:23;98974.72;;;32.55;53.21
63088;BME280;49173;43.164;27.786;2023-08-06T09:36:53;98967.00;;;32.62;53.64
63088;BME280;49173;43.164;27.786;2023-08-06T09:39:20;98963.94;;;32.58;53.54
63088;BME280;49173;43.164;27.786;2023-08-06T09:41:47;98973.16;;;32.64;53.55
63088;BME280;49173;43.164;27.786;2023-08-06T09:44:17;98966.34;;;32.49;53.72
63088;BME280;49173;43.164;27.786;2023-08-06T09:46:52;98964.88;;;32.69;55.78
63088;BME280;49173;43.164;27.786;2023-08-06T09:49:19;98947.75;;;32.82;54.41
63088;BME280;49173;43.164;27.786;2023-08-06T09:51:46;98951.50;;;32.93;54.23
63088;BME280;49173;43.164;27.786;2023-08-06T09:54:16;98962.75;;;33.08;54.13
63088;BME280;49173;43.164;27.786;2023-08-06T09:56:44;98943.53;;;33.01;53.63
63088;BME280;49173;43.164;27.786;2023-08-06T09:59:10;98935.94;;;32.92;55.02
63088;BME280;49173;43.164;27.786;2023-08-06T10:01:39;98935.19;;;33.01;55.83
63088;BME280;49173;43.164;27.786;2023-08-06T10:04:06;98942.97;;;32.99;53.91
63088;BME280;49173;43.164;27.786;2023-08-06T10:06:37;98936.81;;;32.97;53.68
63088;BME280;49173;43.164;27.786;2023-08-06T10:09:04;98944.63;;;33.00;54.07
63088;BME280;49173;43.164;27.786;2023-08-06T10:11:31;98935.41;;;32.95;54.54
63088;BME280;49173;43.164;27.786;2023-08-06T10:14:05;98919.56;;;32.95;54.84
63088;BME280;49173;43.164;27.786;2023-08-06T10:16:33;98916.84;;;33.00;55.58
63088;BME280;49173;43.164;27.786;2023-08-06T10:19:01;98921.34;;;33.06;54.47
63088;BME280;49173;43.164;27.786;2023-08-06T10:21:27;98915.19;;;33.04;53.46
63088;BME280;49173;43.164;27.786;2023-08-06T10:23:54;98903.59;;;33.18;54.86
63088;BME280;49173;43.164;27.786;2023-08-06T10:26:22;98901.19;;;33.31;53.14
63088;BME280;49173;43.164;27.786;2023-08-06T10:28:50;98896.19;;;33.33;52.80
63088;BME280;49173;43.164;27.786;2023-08-06T10:31:16;98890.91;;;33.32;52.97
63088;BME280;49173;43.164;27.786;2023-08-06T10:33:46;98890.50;;;33.50;53.12
63088;BME280;49173;43.164;27.786;2023-08-06T10:36:14;98889.38;;;33.51;52.14
63088;BME280;49173;43.164;27.786;2023-08-06T10:38:48;98878.56;;;33.55;51.94
63088;BME280;49173;43.164;27.786;2023-08-06T10:41:29;98876.59;;;33.50;51.15
63088;BME280;49173;43.164;27.786;2023-08-06T10:44:09;98881.03;;;33.51;52.49
63088;BME280;49173;43.164;27.786;2023-08-06T10:46:35;98886.31;;;33.48;52.89
63088;BME280;49173;43.164;27.786;2023-08-06T10:49:04;98889.38;;;33.51;53.71
63088;BME280;49173;43.164;27.786;2023-08-06T10:51:32;98888.06;;;33.64;53.74
63088;BME280;49173;43.164;27.786;2023-08-06T10:53:58;98887.53;;;33.72;52.03
63088;BME280;49173;43.164;27.786;2023-08-06T10:56:25;98881.06;;;33.56;52.77
63088;BME280;49173;43.164;27.786;2023-08-06T10:58:57;98880.47;;;33.54;52.38
63088;BME280;49173;43.164;27.786;2023-08-06T11:01:23;98882.13;;;33.45;52.88
63088;BME280;49173;43.164;27.786;2023-08-06T11:03:52;98877.84;;;33.32;53.27
63088;BME280;49173;43.164;27.786;2023-08-06T11:06:19;98861.38;;;33.21;52.86
63088;BME280;49173;43.164;27.786;2023-08-06T11:08:53;98866.84;;;33.05;53.42
63088;BME280;49173;43.164;27.786;2023-08-06T11:11:23;98862.34;;;32.99;54.20
63088;BME280;49173;43.164;27.786;2023-08-06T11:13:51;98851.56;;;33.08;53.39
63088;BME280;49173;43.164;27.786;2023-08-06T11:16:19;98868.22;;;32.76;53.29
63088;BME280;49173;43.164;27.786;2023-08-06T11:18:46;98866.56;;;32.75;54.92
63088;BME280;49173;43.164;27.786;2023-08-06T11:21:13;98862.16;;;32.84;53.72
63088;BME280;49173;43.164;27.786;2023-08-06T11:23:39;98865.22;;;32.83;54.52
63088;BME280;49173;43.164;27.786;2023-08-06T11:26:05;98851.31;;;32.77;53.63
63088;BME280;49173;43.164;27.786;2023-08-06T11:28:32;98831.72;;;32.62;53.81
63088;BME280;49173;43.164;27.786;2023-08-06T11:30:58;98811.75;;;32.65;54.68
63088;BME280;49173;43.164;27.786;2023-08-06T11:33:28;98812.63;;;32.71;54.20
63088;BME280;49173;43.164;27.786;2023-08-06T11:35:55;98822.50;;;32.89;54.21
63088;BME280;49173;43.164;27.786;2023-08-06T11:38:28;98835.56;;;32.88;52.87
63088;BME280;49173;43.164;27.786;2023-08-06T11:40:54;98843.97;;;32.66;54.12
63088;BME280;49173;43.164;27.786;2023-08-06T11:43:20;98846.41;;;32.58;55.89
63088;BME280;49173;43.164;27.786;2023-08-06T11:45:48;98873.25;;;32.47;56.51
63088;BME280;49173;43.164;27.786;2023-08-06T11:48:15;98972.56;;;32.62;56.57
63088;BME280;49173;43.164;27.786;2023-08-06T11:50:40;99013.75;;;32.65;55.57
63088;BME280;49173;43.164;27.786;2023-08-06T11:53:06;99030.41;;;32.65;51.80
63088;BME280;49173;43.164;27.786;2023-08-06T11:55:32;99064.00;;;32.41;49.73
63088;BME280;49173;43.164;27.786;2023-08-06T11:58:03;99061.38;;;32.13;49.40
63088;BME280;49173;43.164;27.786;2023-08-06T12:00:30;99054.88;;;31.85;50.07
63088;BME280;49173;43.164;27.786;2023-08-06T12:02:59;99067.31;;;31.66;50.79
63088;BME280;49173;43.164;27.786;2023-08-06T12:05:31;99055.63;;;31.47;50.77
63088;BME280;49173;43.164;27.786;2023-08-06T12:08:00;99051.25;;;31.34;52.12
63088;BME280;49173;43.164;27.786;2023-08-06T12:10:27;99041.16;;;31.28;55.01
63088;BME280;49173;43.164;27.786;2023-08-06T12:12:57;99028.84;;;31.07;55.39
63088;BME280;49173;43.164;27.786;2023-08-06T12:15:23;99040.47;;;31.04;56.82
63088;BME280;49173;43.164;27.786;2023-08-06T12:17:50;99042.28;;;30.99;57.04
63088;BME280;49173;43.164;27.786;2023-08-06T12:20:16;99035.44;;;31.01;58.04
63088;BME280;49173;43.164;27.786;2023-08-06T12:22:42;99027.78;;;31.08;59.34
63088;BME280;49173;43.164;27.786;2023-08-06T12:25:10;99035.44;;;31.18;58.71
63088;BME280;49173;43.164;27.786;2023-08-06T12:27:37;99041.09;;;31.23;58.36
63088;BME280;49173;43.164;27.786;2023-08-06T12:30:05;99070.50;;;31.24;57.55
63088;BME280;49173;43.164;27.786;2023-08-06T12:32:31;99056.50;;;31.19;57.45
63088;BME280;49173;43.164;27.786;2023-08-06T12:34:57;99065.72;;;31.08;57.08
63088;BME280;49173;43.164;27.786;2023-08-06T12:37:26;99043.22;;;31.04;56.67
63088;BME280;49173;43.164;27.786;2023-08-06T12:39:52;99041.19;;;31.00;56.48
63088;BME280;49173;43.164;27.786;2023-08-06T12:42:17;99037.09;;;31.02;58.38
63088;BME280;49173;43.164;27.786;2023-08-06T12:44:43;99043.41;;;31.14;58.11
63088;BME280;49173;43.164;27.786;2023-08-06T12:47:09;99054.56;;;31.31;57.76
63088;BME280;49173;43.164;27.786;2023-08-06T12:49:35;99051.28;;;31.51;56.91
63088;BME280;49173;43.164;27.786;2023-08-06T12:52:01;99058.22;;;31.70;57.01
63088;BME280;49173;43.164;27.786;2023-08-06T12:54:27;99049.25;;;31.80;56.19